Time;durP1;ratioP1;P1;durP2;ratioP2;P2;SDS_P1;SDS_P2;PMS_P1;PMS_P2;Temp;Humidity;BMP_temperature;BMP_pressure;BME280_temperature;BME280_humidity;BME280_pressure;Samples;Min_cycle;Max_cycle;Signal;HPM_P1;HPM_P2
2021/04/23 00:02:13;;;;;;;5.87;4.70;;;;;;;6.19;74.80;94522.52;1760082;81;21072;-56
2021/04/23 00:04:41;;;;;;;5.35;4.85;;;;;;;6.16;74.37;94523.37;1760277;81;21080;-55
2021/04/23 00:07:09;;;;;;;6.25;5.08;;;;;;;6.13;74.29;94534.53;1760179;81;21127;-56
2021/04/23 00:09:39;;;;;;;6.75;5.80;;;;;;;6.14;73.92;94523.03;1760155;81;21131;-56
2021/04/23 00:12:11;;;;;;;5.62;4.83;;;;;;;6.17;73.94;94518.08;1760140;81;21274;-57
2021/04/23 00:14:49;;;;;;;4.60;4.30;;;;;;;6.16;73.53;94528.83;1761993;81;21157;-57
2021/04/23 00:17:18;;;;;;;5.70;4.95;;;;;;;6.13;73.43;94519.52;1793128;80;21126;-56
2021/04/23 00:19:46;;;;;;;4.40;4.00;;;;;;;6.12;73.11;94522.08;1823555;78;21138;-56
2021/04/23 00:22:14;;;;;;;8.00;4.33;;;;;;;6.07;72.74;94527.27;1817182;78;21035;-56
2021/04/23 00:24:44;;;;;;;4.37;4.08;;;;;;;6.03;72.65;94534.77;1814949;79;21351;-56
2021/04/23 00:27:12;;;;;;;6.53;5.47;;;;;;;5.99;72.72;94549.84;1814836;79;21044;-55
2021/04/23 00:29:40;;;;;;;5.22;4.83;;;;;;;5.93;73.06;94552.16;1814881;79;21122;-56
2021/04/23 00:34:55;;;;;;;6.37;5.05;;;;;;;5.86;74.08;94569.45;1814995;79;21063;-56
2021/04/23 00:37:22;;;;;;;5.60;5.10;;;;;;;5.88;74.70;94562.97;1814894;79;21354;-57
2021/04/23 00:39:51;;;;;;;4.92;4.53;;;;;;;5.87;75.06;94568.84;1814872;78;21080;-57
2021/04/23 00:42:19;;;;;;;5.50;4.92;;;;;;;5.89;75.22;94567.81;1814916;79;21107;-56
2021/04/23 00:44:47;;;;;;;6.65;4.42;;;;;;;5.86;75.49;94564.58;1814924;79;21134;-57
2021/04/23 00:47:15;;;;;;;5.42;4.85;;;;;;;5.87;76.02;94564.74;1814893;79;21063;-57
2021/04/23 00:49:42;;;;;;;5.08;4.67;;;;;;;5.88;76.23;94574.47;1814867;78;21381;-57
2021/04/23 00:52:11;;;;;;;4.97;4.58;;;;;;;5.88;76.04;94574.47;1814877;79;21091;-56
2021/04/23 00:54:38;;;;;;;4.42;4.12;;;;;;;5.82;75.88;94572.82;1814900;78;21134;-56
2021/04/23 00:57:06;;;;;;;4.25;3.80;;;;;;;5.81;75.40;94578.72;1814892;79;21173;-56
2021/04/23 00:59:35;;;;;;;4.37;3.77;;;;;;;5.70;75.02;94584.36;1814910;79;21087;-56
2021/04/23 01:02:10;;;;;;;3.52;3.33;;;;;;;5.64;75.03;94579.80;1814820;79;21257;-56
2021/04/23 01:04:37;;;;;;;5.42;3.25;;;;;;;5.63;74.53;94583.72;1814878;79;21118;-56
2021/04/23 01:07:06;;;;;;;3.90;3.60;;;;;;;5.56;73.69;94589.30;1814882;79;21130;-56
2021/04/23 01:09:35;;;;;;;4.92;3.67;;;;;;;5.48;73.76;94589.27;1787772;79;21067;-56
2021/04/23 01:12:05;;;;;;;4.10;3.80;;;;;;;5.44;73.96;94589.94;1814925;79;21047;-56
2021/04/23 01:14:33;;;;;;;5.08;4.17;;;;;;;5.37;73.85;94584.59;1814961;77;22081;-55
2021/04/23 01:17:01;;;;;;;4.80;4.40;;;;;;;5.29;73.80;94591.38;1814922;79;21491;-56
2021/04/23 01:19:30;;;;;;;4.03;3.55;;;;;;;5.20;74.17;94587.07;1814887;79;21091;-56
2021/04/23 01:21:59;;;;;;;4.70;4.30;;;;;;;5.18;74.09;94594.12;1805078;79;21135;-55
2021/04/23 01:24:26;;;;;;;4.28;3.95;;;;;;;5.13;74.02;94598.08;1793912;80;21168;-56
2021/04/23 01:26:55;;;;;;;5.50;5.10;;;;;;;5.03;74.04;94589.51;1793894;80;21362;-56
2021/04/23 01:29:25;;;;;;;4.95;4.58;;;;;;;4.98;74.35;94584.51;1793880;80;21067;-55
2021/04/23 01:31:56;;;;;;;5.50;5.00;;;;;;;4.97;74.30;94577.52;1793925;79;21052;-56
2021/04/23 01:34:30;;;;;;;6.05;5.45;;;;;;;4.98;74.43;94579.05;1778964;80;21064;-56
2021/04/23 01:36:59;;;;;;;5.33;4.83;;;;;;;4.96;74.29;94582.04;1794008;79;21616;-57
2021/04/23 01:39:29;;;;;;;6.90;5.78;;;;;;;4.87;74.29;94576.33;1793909;79;21355;-56
2021/04/23 01:41:57;;;;;;;6.00;5.35;;;;;;;4.69;74.56;94573.91;1793969;80;21477;-55
2021/04/23 01:44:26;;;;;;;6.60;6.00;;;;;;;4.63;74.81;94570.70;1778890;80;21125;-57
2021/04/23 01:46:54;;;;;;;9.70;6.50;;;;;;;4.54;75.00;94582.12;1793920;79;21063;-57
2021/04/23 01:49:24;;;;;;;8.85;7.92;;;;;;;4.51;75.33;94592.48;1793914;79;21033;-56
2021/04/23 01:51:56;;;;;;;9.78;8.88;;;;;;;4.60;75.70;94598.16;1793902;80;21187;-56
2021/04/23 01:54:24;;;;;;;7.65;6.90;;;;;;;4.77;75.67;94608.02;1778561;80;21175;-56
2021/04/23 01:56:52;;;;;;;9.05;8.15;;;;;;;4.92;75.50;94620.25;1793938;80;21051;-55
2021/04/23 01:59:21;;;;;;;8.35;7.50;;;;;;;4.93;75.02;94614.97;1778918;80;21172;-55
2021/04/23 02:01:50;;;;;;;6.33;5.83;;;;;;;4.84;74.98;94627.01;1794020;79;21532;-56
2021/04/23 02:04:19;;;;;;;6.58;5.97;;;;;;;4.73;75.00;94625.02;1778875;80;21208;-55
2021/04/23 02:06:49;;;;;;;8.30;7.45;;;;;;;4.65;75.43;94637.22;1793941;79;21148;-56
2021/04/23 02:09:18;;;;;;;6.75;6.15;;;;;;;4.65;75.49;94641.89;1778879;80;21115;-56
2021/04/23 02:11:47;;;;;;;7.50;6.65;;;;;;;4.63;75.50;94642.28;1793880;79;21143;-55
2021/04/23 02:14:16;;;;;;;5.95;5.37;;;;;;;4.56;75.28;94646.48;1793955;80;21048;-54
2021/04/23 02:16:44;;;;;;;6.58;4.42;;;;;;;4.44;75.42;94644.31;1778911;80;21354;-55
2021/04/23 02:19:13;;;;;;;6.70;6.10;;;;;;;4.39;75.63;94644.78;1793806;80;21067;-55
2021/04/23 02:21:41;;;;;;;5.70;5.15;;;;;;;4.40;75.42;94641.48;1775851;80;21190;-53
2021/04/23 02:24:10;;;;;;;5.80;5.30;;;;;;;4.35;75.11;94644.06;1792802;79;21551;-55
2021/04/23 02:26:40;;;;;;;4.85;4.45;;;;;;;4.22;75.12;94638.98;1815013;79;21143;-55
2021/04/23 02:29:13;;;;;;;4.70;4.30;;;;;;;4.01;75.44;94620.78;1778508;80;21210;-51
2021/04/23 02:31:48;;;;;;;4.90;4.50;;;;;;;3.83;76.09;94637.33;1814912;79;21075;-50
2021/04/23 02:34:19;;;;;;;5.17;4.78;;;;;;;3.83;76.94;94640.05;1778517;80;21132;-53
2021/04/23 02:36:46;;;;;;;6.37;5.87;;;;;;;3.92;76.86;94654.53;1815006;79;21142;-58
2021/04/23 02:39:15;;;;;;;6.40;5.90;;;;;;;4.01;76.90;94637.89;1789968;79;21066;-57
2021/04/23 02:41:46;;;;;;;15.35;11.15;;;;;;;4.07;76.49;94647.74;1823604;77;21177;-55
2021/04/23 02:44:13;;;;;;;10.15;8.13;;;;;;;4.08;76.55;94643.23;1778371;80;21080;-55
2021/04/23 02:46:41;;;;;;;8.58;7.60;;;;;;;4.12;76.83;94656.81;1814978;79;21071;-50
2021/04/23 02:49:10;;;;;;;7.53;6.70;;;;;;;4.23;76.47;94655.49;1778552;80;21123;-51
2021/04/23 02:51:43;;;;;;;7.65;6.85;;;;;;;4.26;76.09;94643.78;1814379;79;21158;-54
2021/04/23 02:54:11;;;;;;;8.83;7.90;;;;;;;4.30;76.42;94636.94;1778377;80;22126;-53
2021/04/23 02:56:40;;;;;;;8.80;8.00;;;;;;;4.46;76.38;94644.67;1814617;79;21586;-51
2021/04/23 02:59:08;;;;;;;10.28;9.13;;;;;;;4.59;76.03;94655.19;1778268;80;21545;-51
2021/04/23 03:01:41;;;;;;;9.38;8.55;;;;;;;4.70;75.50;94653.09;1814792;79;21051;-50
2021/04/23 03:04:08;;;;;;;8.73;7.92;;;;;;;4.66;74.98;94640.70;1778567;80;21139;-49
2021/04/23 03:06:36;;;;;;;10.03;9.03;;;;;;;4.57;75.01;94642.58;1814802;79;21407;-55
2021/04/23 03:09:06;;;;;;;10.20;9.18;;;;;;;4.54;75.06;94649.43;1778086;80;21088;-49
2021/04/23 03:11:36;;;;;;;13.20;10.95;;;;;;;4.66;75.31;94657.84;1814968;79;21042;-51
2021/04/23 03:14:05;;;;;;;25.72;14.43;;;;;;;4.74;74.79;94646.22;1778486;80;21100;-52
2021/04/23 03:16:36;;;;;;;21.25;14.03;;;;;;;4.79;74.81;94652.58;1814968;77;21062;-54
2021/04/23 03:19:13;;;;;;;26.52;14.70;;;;;;;4.82;74.74;94641.61;1778512;80;21196;-53
2021/04/23 03:21:42;;;;;;;14.38;10.95;;;;;;;4.87;74.36;94645.25;1813449;78;21051;-52
2021/04/23 03:24:10;;;;;;;14.40;12.07;;;;;;;4.90;74.46;94651.23;1794037;80;21099;-54
2021/04/23 03:26:39;;;;;;;16.95;14.03;;;;;;;4.99;74.41;94651.47;1779055;80;21167;-52
2021/04/23 03:29:08;;;;;;;15.23;12.98;;;;;;;5.09;74.17;94649.75;1794135;79;21147;-52
2021/04/23 03:31:36;;;;;;;30.92;19.55;;;;;;;5.20;73.70;94651.15;1794116;80;22037;-53
2021/04/23 03:34:05;;;;;;;49.15;25.97;;;;;;;5.28;73.30;94649.22;1778904;80;21112;-52
2021/04/23 03:36:33;;;;;;;53.68;25.77;;;;;;;5.32;73.29;94655.98;1794003;80;21112;-53
2021/04/23 03:39:01;;;;;;;62.75;29.42;;;;;;;5.38;72.92;94648.28;1778990;80;21135;-53
2021/04/23 03:41:31;;;;;;;66.37;32.40;;;;;;;5.41;72.88;94642.60;1794073;79;21151;-54
2021/04/23 03:43:59;;;;;;;60.33;29.18;;;;;;;5.47;72.53;94647.75;1794064;79;22055;-53
2021/04/23 03:46:28;;;;;;;35.85;20.30;;;;;;;5.46;72.52;94642.11;1793921;80;21163;-53
2021/04/23 03:48:56;;;;;;;29.72;17.12;;;;;;;5.53;72.52;94642.77;1778997;80;21155;-51
2021/04/23 03:51:24;;;;;;;43.33;28.17;;;;;;;5.66;72.09;94645.64;1794051;79;21056;-53
2021/04/23 03:53:52;;;;;;;42.78;25.68;;;;;;;5.67;71.70;94641.73;1793994;80;21052;-54
2021/04/23 03:56:20;;;;;;;29.37;20.70;;;;;;;5.64;71.53;94646.66;1778962;80;21898;-54
2021/04/23 03:58:49;;;;;;;20.43;14.53;;;;;;;5.63;71.63;94651.33;1794041;79;21583;-53
2021/04/23 04:01:21;;;;;;;25.48;19.25;;;;;;;5.66;71.74;94657.34;1793937;80;21096;-53
2021/04/23 04:03:50;;;;;;;30.88;22.52;;;;;;;5.66;71.38;94656.56;1778985;80;21157;-53
2021/04/23 04:06:18;;;;;;;21.52;17.45;;;;;;;5.57;71.29;94654.38;1793988;80;21134;-53
2021/04/23 04:08:48;;;;;;;28.35;22.35;;;;;;;5.51;71.56;94652.54;1778967;80;21143;-52
2021/04/23 04:11:18;;;;;;;34.80;30.10;;;;;;;5.48;71.68;94661.56;1793893;80;21167;-53
2021/04/23 04:13:47;;;;;;;22.58;18.15;;;;;;;5.45;71.87;94659.67;1778848;80;21143;-54
2021/04/23 04:16:15;;;;;;;25.65;16.75;;;;;;;5.42;71.62;94661.27;1793959;80;21056;-53
2021/04/23 04:18:43;;;;;;;22.87;16.62;;;;;;;5.35;71.71;94661.39;1779002;80;21084;-54
2021/04/23 04:21:12;;;;;;;16.85;13.50;;;;;;;5.32;72.23;94657.35;1793944;80;21181;-52
2021/04/23 04:23:40;;;;;;;16.48;13.10;;;;;;;5.38;72.39;94662.53;1767999;80;21175;-54
2021/04/23 04:26:08;;;;;;;58.48;31.05;;;;;;;5.35;72.23;94668.79;1792770;80;21112;-54
2021/04/23 04:28:36;;;;;;;59.67;29.48;;;;;;;5.31;72.44;94665.36;1792843;80;21175;-53
2021/04/23 04:31:05;;;;;;;53.17;27.20;;;;;;;5.38;72.75;94670.72;1792817;80;21067;-53
2021/04/23 04:33:34;;;;;;;53.48;28.42;;;;;;;5.53;72.56;94674.72;1812367;79;21409;-54
2021/04/23 04:36:02;;;;;;;46.00;28.67;;;;;;;5.68;72.21;94669.19;1814830;78;21079;-53
2021/04/23 04:38:30;;;;;;;39.03;24.00;;;;;;;5.81;71.73;94666.06;1814904;78;21122;-53
2021/04/23 04:40:58;;;;;;;57.45;30.45;;;;;;;5.88;71.22;94668.65;1814783;77;21119;-56
2021/04/23 04:43:26;;;;;;;31.82;22.50;;;;;;;5.89;71.30;94665.52;1778425;80;21175;-54
2021/04/23 04:45:54;;;;;;;35.48;23.73;;;;;;;5.87;70.97;94667.11;1814850;79;21196;-53
2021/04/23 04:48:24;;;;;;;54.50;40.50;;;;;;;5.72;71.02;94676.13;1814777;78;21055;-57
2021/04/23 04:50:58;;;;;;;35.30;22.93;;;;;;;5.51;71.36;94673.78;1814885;78;21059;-54
2021/04/23 04:53:26;;;;;;;29.37;22.30;;;;;;;5.38;71.85;94677.53;1814953;79;21618;-52
2021/04/23 04:55:57;;;;;;;37.93;24.02;;;;;;;5.38;72.09;94674.20;1814911;78;21079;-52
2021/04/23 04:58:31;;;;;;;42.78;28.42;;;;;;;5.32;72.14;94680.53;1814933;77;21188;-52
2021/04/23 05:00:59;;;;;;;55.80;39.63;;;;;;;5.27;72.46;94687.84;1814921;79;21555;-52
2021/04/23 05:03:27;;;;;;;73.50;50.75;;;;;;;5.22;72.69;94691.05;1814943;79;21555;-53
2021/04/23 05:05:55;;;;;;;78.00;54.35;;;;;;;5.19;72.93;94679.57;1814767;79;21915;-54
2021/04/23 05:08:23;;;;;;;60.40;43.68;;;;;;;5.19;73.16;94676.09;1814844;79;21028;-53
2021/04/23 05:10:51;;;;;;;58.13;41.18;;;;;;;5.28;73.21;94671.04;1814808;79;21283;-52
2021/04/23 05:13:19;;;;;;;47.40;34.40;;;;;;;5.36;72.92;94682.61;1814803;79;21111;-54
2021/04/23 05:15:47;;;;;;;52.80;36.75;;;;;;;5.37;72.80;94693.69;1814907;77;21126;-52
2021/04/23 05:18:15;;;;;;;49.25;34.55;;;;;;;5.36;72.70;94695.66;1814782;78;21044;-54
2021/04/23 05:20:43;;;;;;;49.95;33.28;;;;;;;5.35;72.76;94687.30;1778300;80;21084;-54
2021/04/23 05:23:11;;;;;;;64.12;43.08;;;;;;;5.40;72.89;94688.19;1802442;79;21192;-54
2021/04/23 05:25:39;;;;;;;55.20;36.88;;;;;;;5.46;72.71;94685.77;1767667;80;21186;-54
2021/04/23 05:28:08;;;;;;;50.95;34.08;;;;;;;5.55;72.76;94683.25;1781973;80;21104;-54
2021/04/23 05:30:37;;;;;;;52.85;37.03;;;;;;;5.57;72.53;94674.84;1778769;80;21063;-53
2021/04/23 05:33:07;;;;;;;61.30;43.63;;;;;;;5.54;72.65;94677.62;1790283;79;21528;-56
2021/04/23 05:35:35;;;;;;;64.55;46.23;;;;;;;5.61;72.94;94681.61;1784199;79;21250;-54
2021/04/23 05:38:03;;;;;;;60.08;39.27;;;;;;;5.79;72.97;94685.58;1769432;80;21515;-63
2021/04/23 05:40:43;;;;;;;62.65;43.48;;;;;;;5.98;72.79;94681.34;1778282;80;21187;-53
2021/04/23 05:43:13;;;;;;;59.65;44.03;;;;;;;6.12;72.30;94686.54;1778229;79;21076;-53
2021/04/23 05:45:42;;;;;;;65.47;44.53;;;;;;;6.21;71.68;94682.05;1777997;80;21135;-54
2021/04/23 05:48:15;;;;;;;53.85;38.05;;;;;;;6.28;71.34;94681.91;1791231;79;22013;-58
2021/04/23 05:50:45;;;;;;;55.92;39.48;;;;;;;6.33;70.79;94678.67;1778728;80;21140;-55
2021/04/23 05:53:13;;;;;;;54.77;43.30;;;;;;;6.34;70.80;94676.72;1794387;79;21184;-54
2021/04/23 05:55:42;;;;;;;52.55;41.35;;;;;;;6.40;70.67;94680.49;1792642;79;21076;-57
2021/04/23 05:58:11;;;;;;;43.98;35.98;;;;;;;6.51;70.20;94678.32;1780325;79;21517;-55
2021/04/23 06:03:17;;;;;;;43.95;33.40;;;;;;;6.44;69.51;94692.11;1858714;75;22699;-56
2021/04/23 06:05:47;;;;;;;53.45;38.70;;;;;;;6.30;69.52;94702.73;1833342;76;21162;-56
2021/04/23 06:08:15;;;;;;;51.68;38.42;;;;;;;6.18;69.77;94697.14;1798924;78;21368;-56
2021/04/23 06:10:45;;;;;;;51.28;37.20;;;;;;;6.05;70.37;94694.84;1793702;78;21151;-60
2021/04/23 06:13:13;;;;;;;30.80;23.25;;;;;;;6.03;70.84;94689.04;1795870;78;21129;-58
2021/04/23 06:15:42;;;;;;;31.85;24.18;;;;;;;6.15;71.00;94695.25;1770205;79;21629;-55
2021/04/23 06:18:11;;;;;;;35.98;26.82;;;;;;;6.28;70.87;94697.51;1798671;78;21248;-54
2021/04/23 06:20:41;;;;;;;31.45;24.70;;;;;;;6.44;70.40;94695.63;1775091;79;21230;-62
2021/04/23 06:23:11;;;;;;;50.73;36.83;;;;;;;6.53;70.62;94700.53;1770992;80;21149;-55
2021/04/23 06:25:39;;;;;;;46.88;31.80;;;;;;;6.63;70.81;94694.05;1765561;80;21947;-55
2021/04/23 06:28:11;;;;;;;33.88;26.62;;;;;;;6.86;70.39;94698.81;1770866;79;21076;-66
2021/04/23 06:30:42;;;;;;;34.10;26.07;;;;;;;7.07;69.52;94705.78;1783532;79;21199;-59
2021/04/23 06:33:17;;;;;;;35.17;25.45;;;;;;;7.12;69.40;94704.08;1744948;78;21376;-61
2021/04/23 06:35:47;;;;;;;29.70;23.15;;;;;;;7.21;69.03;94700.16;1773139;78;21165;-54
2021/04/23 06:38:19;;;;;;;26.50;21.00;;;;;;;7.34;68.57;94702.38;1748264;79;21173;-58
2021/04/23 06:40:47;;;;;;;24.02;18.42;;;;;;;7.39;67.70;94705.99;1770335;79;21176;-55
2021/04/23 06:43:15;;;;;;;28.70;23.47;;;;;;;7.41;67.08;94700.07;1767067;79;21127;-55
2021/04/23 06:45:45;;;;;;;36.50;25.52;;;;;;;7.36;67.07;94703.33;1766708;79;21261;-56
2021/04/23 06:48:14;;;;;;;37.05;27.70;;;;;;;7.45;67.48;94702.13;1763990;79;21677;-61
2021/04/23 06:50:43;;;;;;;39.23;26.97;;;;;;;7.69;66.98;94705.63;1762554;79;21200;-58
2021/04/23 06:53:11;;;;;;;26.60;18.90;;;;;;;7.87;66.58;94705.94;1765390;80;21226;-59
2021/04/23 06:55:42;;;;;;;24.07;18.65;;;;;;;7.99;66.00;94707.98;1764953;79;21321;-62
2021/04/23 06:58:11;;;;;;;21.25;17.55;;;;;;;8.04;66.21;94704.71;1774999;80;21373;-63
2021/04/23 07:00:39;;;;;;;20.25;15.15;;;;;;;8.11;65.74;94706.50;1766330;80;21176;-64
2021/04/23 07:03:09;;;;;;;27.95;19.00;;;;;;;8.29;65.06;94711.69;1764887;79;21168;-59
2021/04/23 07:05:41;;;;;;;24.45;16.05;;;;;;;8.39;65.65;94708.48;1763544;79;22198;-61
2021/04/23 07:08:11;;;;;;;21.05;15.30;;;;;;;8.45;64.47;94710.27;1762103;80;21208;-60
2021/04/23 07:10:39;;;;;;;19.00;15.70;;;;;;;8.44;64.56;94712.84;1769553;79;21359;-66
2021/04/23 07:13:07;;;;;;;47.80;25.48;;;;;;;8.52;64.84;94714.20;1767557;80;21500;-63
2021/04/23 07:15:36;;;;;;;32.65;20.27;;;;;;;8.65;65.70;94711.48;1773206;79;21225;-59
2021/04/23 07:18:04;;;;;;;33.90;23.45;;;;;;;8.85;65.77;94711.48;1773033;80;21190;-60
2021/04/23 07:20:34;;;;;;;29.00;20.27;;;;;;;9.07;65.09;94706.89;1771847;78;21246;-60
2021/04/23 07:23:04;;;;;;;23.50;16.97;;;;;;;9.32;64.74;94713.75;1761583;79;21248;-64
2021/04/23 07:25:32;;;;;;;23.83;17.25;;;;;;;9.52;63.44;94715.67;1769170;79;21270;-59
2021/04/23 07:28:00;;;;;;;17.85;14.28;;;;;;;9.70;62.32;94716.64;1774313;79;21179;-58
2021/04/23 07:30:31;;;;;;;25.52;17.82;;;;;;;9.79;60.47;94722.22;1770379;79;21174;-57
2021/04/23 07:32:59;;;;;;;20.82;14.68;;;;;;;9.67;60.09;94714.00;1775885;80;21205;-60
2021/04/23 07:35:28;;;;;;;19.27;13.70;;;;;;;9.55;59.95;94718.31;1762786;80;21319;-59
2021/04/23 07:37:58;;;;;;;15.32;12.45;;;;;;;9.42;59.99;94707.93;1766552;80;21178;-60
2021/04/23 07:40:27;;;;;;;15.85;12.50;;;;;;;9.48;60.78;94709.52;1765197;79;21181;-59
2021/04/23 07:42:54;;;;;;;15.10;10.32;;;;;;;9.56;61.12;94711.60;1771138;79;21171;-57
2021/04/23 07:45:23;;;;;;;11.70;9.23;;;;;;;9.75;61.83;94705.69;1772705;79;21178;-63
2021/04/23 07:47:52;;;;;;;14.15;9.80;;;;;;;9.90;60.91;94699.30;1766738;80;22207;-56
2021/04/23 07:50:22;;;;;;;9.40;7.62;;;;;;;10.11;61.12;94713.72;1768239;79;21244;-61
2021/04/23 07:52:54;;;;;;;10.55;8.08;;;;;;;10.36;59.76;94702.63;1770583;79;21428;-58
2021/04/23 07:55:22;;;;;;;9.38;8.00;;;;;;;10.42;57.56;94706.95;1757263;80;21586;-57
2021/04/23 07:57:53;;;;;;;16.27;8.18;;;;;;;10.45;57.43;94706.05;1769827;79;21142;-58
2021/04/23 08:00:23;;;;;;;7.60;6.35;;;;;;;10.53;59.79;94709.48;1784938;79;21415;-56
2021/04/23 08:02:52;;;;;;;10.08;7.22;;;;;;;10.64;58.11;94708.50;1768280;79;21166;-59
2021/04/23 08:05:22;;;;;;;11.80;8.28;;;;;;;10.64;57.11;94709.09;1781433;79;21467;-61
2021/04/23 08:07:51;;;;;;;11.30;7.60;;;;;;;10.75;55.98;94710.23;1784614;79;21185;-58
2021/04/23 08:10:23;;;;;;;14.03;8.70;;;;;;;10.79;54.94;94699.27;1772845;80;21264;-58
2021/04/23 08:12:52;;;;;;;10.98;7.55;;;;;;;10.92;55.51;94715.11;1774453;80;21675;-60
2021/04/23 08:15:25;;;;;;;14.50;8.40;;;;;;;11.03;55.28;94715.48;1759061;79;21592;-58
2021/04/23 08:17:56;;;;;;;12.20;8.18;;;;;;;11.07;54.77;94710.61;1768669;80;21209;-58
2021/04/23 08:20:25;;;;;;;13.53;7.55;;;;;;;11.08;54.18;94705.27;1762179;80;21158;-60
2021/04/23 08:22:55;;;;;;;9.90;7.15;;;;;;;11.13;55.82;94711.55;1760582;79;21175;-60
2021/04/23 08:25:24;;;;;;;12.90;7.75;;;;;;;11.20;54.92;94708.52;1783176;79;21361;-57
2021/04/23 08:27:53;;;;;;;9.75;7.03;;;;;;;11.26;53.42;94706.73;1782166;79;21632;-60
2021/04/23 08:30:25;;;;;;;17.40;8.05;;;;;;;11.29;52.47;94705.82;1777830;79;21165;-57
2021/04/23 08:32:54;;;;;;;18.00;7.42;;;;;;;11.26;51.89;94712.23;1770083;80;21227;-59
2021/04/23 08:35:23;;;;;;;15.18;7.65;;;;;;;11.22;52.23;94710.23;1760990;80;21198;-61
2021/04/23 08:37:53;;;;;;;14.20;7.75;;;;;;;11.37;52.82;94716.70;1781232;79;21247;-59
2021/04/23 08:40:22;;;;;;;14.13;7.40;;;;;;;11.68;50.44;94712.59;1725554;81;21188;-57
2021/04/23 08:42:51;;;;;;;11.45;6.78;;;;;;;12.05;51.39;94721.11;1759808;80;21145;-57
2021/04/23 08:45:21;;;;;;;12.53;6.87;;;;;;;12.36;52.93;94720.37;1753352;79;21508;-56
2021/04/23 08:47:51;;;;;;;8.83;5.70;;;;;;;12.54;49.92;94720.53;1768671;80;21193;-58
2021/04/23 08:50:21;;;;;;;8.70;6.10;;;;;;;12.61;50.59;94720.84;1778021;79;21218;-57
2021/04/23 08:52:52;;;;;;;10.30;6.67;;;;;;;12.49;50.07;94721.75;1779077;79;21576;-60
2021/04/23 08:55:24;;;;;;;10.32;7.10;;;;;;;12.21;49.00;94722.19;1779292;79;21648;-59
2021/04/23 08:57:54;;;;;;;16.15;8.20;;;;;;;11.94;49.03;94719.39;1773544;79;21244;-59
2021/04/23 09:00:22;;;;;;;10.68;7.70;;;;;;;11.70;49.99;94714.28;1782928;79;21156;-58
2021/04/23 09:02:50;;;;;;;12.20;6.97;;;;;;;11.60;50.04;94710.73;1783954;78;21364;-61
2021/04/23 09:05:20;;;;;;;13.83;7.17;;;;;;;11.50;49.54;94709.12;1781502;79;21193;-63
2021/04/23 09:08:00;;;;;;;12.00;7.12;;;;;;;11.37;48.61;94715.33;1772513;79;21165;-58
2021/04/23 09:10:29;;;;;;;14.13;8.60;;;;;;;11.38;50.88;94707.84;1756996;80;21103;-59
2021/04/23 09:13:09;;;;;;;17.87;8.50;;;;;;;11.39;51.72;94712.89;1723342;80;21950;-58
2021/04/23 09:15:40;;;;;;;10.58;6.80;;;;;;;11.49;51.41;94711.72;1760447;80;21155;-57
2021/04/23 09:18:16;;;;;;;10.08;6.15;;;;;;;11.68;50.67;94716.10;1754566;80;21161;-54
2021/04/23 09:20:48;;;;;;;7.03;5.83;;;;;;;11.75;48.76;94709.55;1751103;80;21157;-58
2021/04/23 09:23:20;;;;;;;9.90;7.33;;;;;;;11.74;49.47;94714.27;1762752;80;21195;-57
2021/04/23 09:25:54;;;;;;;12.80;6.83;;;;;;;11.84;49.22;94709.55;1756697;80;21151;-58
2021/04/23 09:28:36;;;;;;;19.92;6.50;;;;;;;12.02;51.39;94705.45;1754222;80;22295;-57
2021/04/23 09:31:27;;;;;;;17.77;7.83;;;;;;;12.23;49.60;94701.83;1758758;80;21107;-59
2021/04/23 09:34:05;;;;;;;12.15;8.30;;;;;;;12.33;48.89;94699.22;1764839;80;21082;-58
2021/04/23 09:36:44;;;;;;;9.35;6.20;;;;;;;12.28;47.57;94699.21;1757003;80;21146;-56
2021/04/23 09:39:18;;;;;;;8.13;5.62;;;;;;;12.35;48.35;94703.66;1758939;80;21216;-58
2021/04/23 09:42:02;;;;;;;12.88;6.15;;;;;;;12.56;48.47;94695.24;1760993;80;21664;-61
2021/04/23 09:44:40;;;;;;;16.07;6.60;;;;;;;12.80;45.78;94698.89;1757808;80;21243;-58
2021/04/23 09:47:21;;;;;;;7.85;5.62;;;;;;;12.89;44.87;94691.99;1755753;80;21186;-58
2021/04/23 09:49:57;;;;;;;9.13;5.60;;;;;;;12.80;42.54;94705.80;1759179;80;21203;-60
2021/04/23 09:52:26;;;;;;;13.55;6.67;;;;;;;12.63;44.80;94699.84;1754365;80;21082;-60
2021/04/23 09:54:57;;;;;;;16.40;9.25;;;;;;;12.85;45.22;94692.74;1757926;80;21272;-58
2021/04/23 10:00:18;;;;;;;17.12;10.35;;;;;;;12.60;45.40;94686.19;1892587;74;22806;-58
2021/04/23 10:02:50;;;;;;;17.15;7.75;;;;;;;12.19;46.99;94684.65;1850251;76;21209;-58
2021/04/23 10:05:45;;;;;;;11.90;6.25;;;;;;;12.01;47.98;94690.92;1851227;76;22504;-56
2021/04/23 10:08:25;;;;;;;18.92;7.33;;;;;;;12.05;47.58;94690.78;1852786;76;21642;-56
2021/04/23 10:10:57;;;;;;;14.55;6.17;;;;;;;12.52;48.82;94687.73;1855316;76;21161;-56
2021/04/23 10:13:32;;;;;;;9.23;5.72;;;;;;;13.08;49.25;94685.23;1839824;76;21105;-58
2021/04/23 10:16:15;;;;;;;11.53;6.20;;;;;;;13.63;46.40;94685.19;1847415;76;21131;-59
2021/04/23 10:18:44;;;;;;;10.63;6.30;;;;;;;14.13;44.70;94678.13;1814839;78;21188;-56
2021/04/23 10:21:12;;;;;;;14.30;6.87;;;;;;;14.57;43.23;94678.44;1816050;77;21184;-58
2021/04/23 10:23:40;;;;;;;12.07;6.50;;;;;;;14.77;42.93;94679.95;1848097;77;21188;-60
2021/04/23 10:26:08;;;;;;;13.45;9.28;;;;;;;14.98;43.11;94687.14;1850836;76;21094;-58
2021/04/23 10:28:37;;;;;;;11.20;6.20;;;;;;;14.94;43.37;94679.65;1847186;77;21164;-59
2021/04/23 10:31:04;;;;;;;11.50;6.20;;;;;;;14.89;43.55;94673.39;1803144;78;21231;-58
2021/04/23 10:33:33;;;;;;;11.73;6.15;;;;;;;14.66;43.34;94670.68;1772335;80;21533;-59
2021/04/23 10:36:02;;;;;;;8.60;5.37;;;;;;;14.47;43.17;94671.44;1806328;79;21167;-59
2021/04/23 10:38:38;;;;;;;11.80;6.42;;;;;;;14.32;43.15;94676.05;1785044;79;21178;-56
2021/04/23 10:41:07;;;;;;;11.63;5.67;;;;;;;14.05;43.29;94680.34;1774480;78;21119;-58
2021/04/23 10:43:35;;;;;;;11.15;5.95;;;;;;;13.71;43.33;94669.77;1763389;80;21377;-56
2021/04/23 10:46:12;;;;;;;11.83;6.70;;;;;;;13.23;44.01;94673.05;1774842;80;21163;-56
2021/04/23 10:48:48;;;;;;;12.00;5.72;;;;;;;12.87;44.48;94677.26;1761494;80;21492;-55
2021/04/23 10:51:28;;;;;;;11.88;5.92;;;;;;;12.43;45.77;94684.97;1772181;80;21539;-56
2021/04/23 10:54:16;;;;;;;11.03;8.23;;;;;;;12.06;46.52;94682.03;1771526;79;21238;-56
2021/04/23 10:56:53;;;;;;;11.53;7.83;;;;;;;11.76;47.81;94689.03;1751096;79;22192;-59
2021/04/23 10:59:32;;;;;;;8.23;5.75;;;;;;;11.38;48.82;94712.73;1760929;80;21182;-58
2021/04/23 11:02:18;;;;;;;9.38;5.83;;;;;;;10.95;49.45;94723.84;1741774;81;21213;-59
2021/04/23 11:04:56;;;;;;;11.95;7.28;;;;;;;10.52;50.86;94712.07;1728236;81;21178;-59
2021/04/23 11:07:25;;;;;;;7.83;5.28;;;;;;;10.15;52.10;94713.61;1737813;82;21197;-58
2021/04/23 11:10:01;;;;;;;10.45;6.60;;;;;;;9.92;53.47;94705.70;1736617;81;21824;-57
2021/04/23 11:12:29;;;;;;;10.50;5.70;;;;;;;9.69;53.35;94710.21;1726530;81;21591;-59
2021/04/23 11:15:17;;;;;;;14.50;6.80;;;;;;;9.57;54.04;94713.14;1731372;81;21229;-58
2021/04/23 11:17:44;;;;;;;15.23;7.33;;;;;;;9.52;55.48;94715.67;1739359;81;21578;-58
2021/04/23 11:20:27;;;;;;;11.65;6.20;;;;;;;9.49;55.42;94711.84;1724145;82;21559;-59
2021/04/23 11:22:57;;;;;;;13.35;5.45;;;;;;;9.54;55.89;94710.50;1720652;81;26672;-63
2021/04/23 11:25:25;;;;;;;10.82;5.95;;;;;;;9.74;54.62;94716.52;1738445;81;21137;-61
2021/04/23 11:28:05;;;;;;;11.70;5.00;;;;;;;10.05;53.36;94709.23;1734512;81;21205;-59
2021/04/23 11:30:57;;;;;;;9.43;5.60;;;;;;;10.42;54.31;94701.45;1727808;81;21249;-64
2021/04/23 11:33:48;;;;;;;11.03;5.78;;;;;;;10.80;54.49;94702.18;1731706;80;21190;-58
2021/04/23 11:36:25;;;;;;;6.47;5.00;;;;;;;11.19;53.12;94697.34;1743221;81;21095;-59
2021/04/23 11:39:06;;;;;;;6.90;4.70;;;;;;;11.59;52.24;94703.69;1725741;81;21188;-60
2021/04/23 11:41:35;;;;;;;8.33;5.72;;;;;;;12.26;49.75;94703.05;1731426;81;21189;-59
2021/04/23 11:44:24;;;;;;;9.85;5.17;;;;;;;13.14;49.07;94699.34;1737288;82;21228;-60
2021/04/23 11:46:53;;;;;;;8.15;5.30;;;;;;;14.11;45.29;94690.89;1692765;81;21251;-63
2021/04/23 11:49:21;;;;;;;5.47;4.35;;;;;;;14.74;44.70;94690.61;1731746;82;21274;-63
2021/04/23 11:51:52;;;;;;;7.85;4.10;;;;;;;15.23;43.64;94691.36;1730351;81;21181;-63
2021/04/23 11:54:43;;;;;;;7.95;4.10;;;;;;;15.34;42.81;94695.11;1727451;81;21577;-60